METAR AND TAF INFORMATION
METAR FOR KTPA
KTPA 211453Z 05004KT 10SM BKN021 BKN100 BKN250 29/23 A3009 RMK AO2 SLP190 T02890228 51005
KTPA 211444Z VRB05KT 10SM BKN021 BKN100 BKN250 30/24 A3010 RMK AO2 T03000239
KTPA 211353Z COR 02006KT 10SM FEW018 SCT150 BKN250 28/23 A3008 RMK AO2 SLP187 T02830233
KTPA 211253Z 35005KT 10SM FEW025 SCT150 BKN250 27/23 A3009 RMK AO2 SLP190 T02670228
KTPA 211501Z 2115/2218 02004KT P6SM SCT020 BKN250
TEMPO 2115/2118 BKN020
FM211800 26007KT P6SM SCT030 SCT250
FM212100 29007KT P6SM SCT050 SCT250
FM220100 VRB04KT P6SM FEW050 BKN250

 AIRPORT MAP

 RUNWAY INFORMATION
Runway 10 Runway length 6999 ft Runway width 150 ft
Runway elevation 14 ft Runway displaced threshold 0 ft Runway heading 92
Runway 28 Runway length 6999 ft Runway width 150 ft
Runway elevation 26 ft Runway displaced threshold 0 ft Runway heading 272
Runway 19L Runway length 8300 ft Runway width 150 ft
Runway elevation 26 ft Runway displaced threshold 0 ft Runway heading 182
Runway 01R Runway length 8300 ft Runway width 150 ft
Runway elevation 18 ft Runway displaced threshold 0 ft Runway heading 2
Runway 19R Runway length 11002 ft Runway width 150 ft
Runway elevation 21 ft Runway displaced threshold 0 ft Runway heading 182
Runway 01L Runway length 11002 ft Runway width 150 ft
Runway elevation 11 ft Runway displaced threshold 0 ft Runway heading 2

 AIRPORT FREQUENCIES
Type A/D Name APP/DEP Frequency 118.15 MHZ
Type ATIS Name ATIS Frequency 126.45 MHZ
Type CLD Name CLNC DEL Frequency 133.6 MHZ
Type GND Name GND Frequency 121.7 MHZ
Type TWR Name TWR Frequency 119.5 MHZ
Type UNIC Name UNICOM Frequency 122.95 MHZ

 AIRPORT NEAR NAVIGATION AIDS
Type NDB Name Cosme Frequency 368 KHZ

-